createdAt,value
2023-02-18T00:00:18.178Z,11.65
2023-02-18T00:02:23.133Z,11.62
2023-02-18T00:04:28.135Z,11.61
2023-02-18T00:06:34.975Z,11.70
2023-02-18T00:08:39.710Z,11.62
2023-02-18T00:10:47.205Z,11.62
2023-02-18T00:12:52.030Z,11.56
2023-02-18T00:14:59.917Z,11.49
2023-02-18T00:17:04.737Z,11.42
2023-02-18T00:19:13.251Z,11.39
2023-02-18T00:21:18.497Z,11.41
2023-02-18T00:23:23.310Z,11.41
2023-02-18T00:25:28.776Z,11.39
2023-02-18T00:27:36.699Z,11.43
2023-02-18T00:29:41.635Z,11.47
2023-02-18T00:31:46.616Z,11.41
2023-02-18T00:33:51.568Z,11.45
2023-02-18T00:36:03.711Z,11.43
2023-02-18T00:38:08.470Z,11.40
2023-02-18T00:40:14.049Z,11.42
2023-02-18T00:42:18.802Z,11.51
2023-02-18T00:44:26.285Z,11.48
2023-02-18T00:46:31.476Z,11.54
2023-02-18T00:48:39.617Z,11.50
2023-02-18T00:50:44.443Z,11.47
2023-02-18T00:52:49.269Z,11.44
2023-02-18T00:54:54.256Z,11.48
2023-02-18T00:56:59.069Z,11.52
2023-02-18T00:59:04.268Z,11.54
2023-02-18T01:01:13.233Z,11.53
2023-02-18T01:03:18.922Z,11.56
2023-02-18T01:05:24.282Z,11.58
2023-02-18T01:07:29.224Z,11.60
2023-02-18T01:09:34.089Z,11.50
2023-02-18T01:11:38.911Z,11.45
2023-02-18T01:13:44.385Z,11.33
2023-02-18T01:15:49.211Z,11.32
2023-02-18T01:17:56.619Z,11.29
2023-02-18T01:20:01.610Z,11.30
2023-02-18T01:22:06.876Z,11.19
2023-02-18T01:24:13.077Z,11.23
2023-02-18T01:26:17.981Z,11.26
2023-02-18T01:28:25.347Z,11.20
2023-02-18T01:30:30.219Z,11.12
2023-02-18T01:32:35.410Z,11.13
2023-02-18T01:34:42.834Z,11.19
2023-02-18T01:36:47.612Z,11.14
2023-02-18T01:38:55.476Z,11.09
2023-02-18T01:41:01.148Z,11.11
2023-02-18T01:43:06.980Z,11.09
2023-02-18T01:45:26.609Z,11.06
2023-02-18T01:47:31.440Z,11.10
2023-02-18T01:49:40.524Z,11.09
2023-02-18T01:51:51.440Z,11.10
2023-02-18T01:53:59.477Z,11.17
2023-02-18T01:56:09.506Z,11.18
2023-02-18T01:58:16.183Z,11.14
2023-02-18T02:00:23.339Z,11.16
2023-02-18T02:02:30.894Z,11.19
2023-02-18T02:04:36.395Z,11.22
2023-02-18T02:06:41.286Z,11.14
2023-02-18T02:08:52.109Z,11.20
2023-02-18T02:11:15.820Z,11.19
2023-02-18T02:13:30.183Z,11.23
2023-02-18T02:15:40.902Z,11.16
2023-02-18T02:18:03.993Z,11.22
2023-02-18T02:20:45.095Z,11.05
2023-02-18T02:23:30.958Z,11.08
2023-02-18T02:25:59.443Z,11.00
2023-02-18T02:28:28.608Z,10.94
2023-02-18T02:30:55.196Z,11.02
2023-02-18T02:33:23.190Z,10.98
2023-02-18T02:35:34.099Z,10.97
2023-02-18T02:37:45.357Z,11.00
2023-02-18T02:39:59.962Z,10.99
2023-02-18T02:42:16.837Z,10.98
2023-02-18T02:44:24.708Z,11.00
2023-02-18T02:46:34.847Z,11.07
2023-02-18T02:48:47.102Z,11.11
2023-02-18T02:51:07.084Z,11.16
2023-02-18T02:53:20.351Z,11.26
2023-02-18T02:55:25.317Z,11.23
2023-02-18T02:57:55.376Z,11.28
2023-02-18T03:00:11.219Z,11.37
2023-02-18T03:02:29.024Z,11.31
2023-02-18T03:04:55.563Z,11.27
2023-02-18T03:07:17.260Z,11.32
2023-02-18T03:09:30.179Z,11.36
2023-02-18T03:11:45.656Z,11.34
2023-02-18T03:14:07.996Z,11.42
2023-02-18T03:16:26.858Z,11.50
2023-02-18T03:18:36.701Z,11.46
2023-02-18T03:20:46.188Z,11.58
2023-02-18T03:22:55.739Z,11.61
2023-02-18T03:25:02.791Z,11.53
2023-02-18T03:27:12.691Z,11.44
2023-02-18T03:29:21.091Z,11.38
2023-02-18T03:31:31.732Z,11.46
2023-02-18T03:33:41.135Z,11.42
2023-02-18T03:35:50.078Z,11.45
2023-02-18T03:38:04.202Z,11.44
2023-02-18T03:40:12.494Z,11.47
2023-02-18T03:42:19.481Z,11.47
2023-02-18T03:44:24.493Z,11.48
2023-02-18T03:46:30.192Z,11.40
2023-02-18T03:48:37.094Z,11.37
2023-02-18T03:50:39.439Z,11.42
2023-02-18T03:52:44.321Z,11.35
2023-02-18T03:54:51.786Z,11.37
2023-02-18T03:56:56.649Z,11.24
2023-02-18T03:59:01.446Z,11.28
2023-02-18T04:01:07.306Z,11.29
2023-02-18T04:03:12.113Z,11.31
2023-02-18T04:05:16.973Z,11.30
2023-02-18T04:07:21.803Z,11.31
2023-02-18T04:09:26.788Z,11.32
2023-02-18T04:11:34.182Z,11.30
2023-02-18T04:13:39.041Z,11.21
2023-02-18T04:15:43.961Z,11.24
2023-02-18T04:17:48.953Z,11.22
2023-02-18T04:19:53.824Z,11.29
2023-02-18T04:21:58.673Z,11.37
2023-02-18T04:24:03.991Z,11.38
2023-02-18T04:26:08.837Z,11.41
2023-02-18T04:28:17.425Z,11.51
2023-02-18T04:30:22.744Z,11.31
2023-02-18T04:32:27.675Z,11.31
2023-02-18T04:34:32.584Z,11.27
2023-02-18T04:36:37.520Z,11.30
2023-02-18T04:38:43.243Z,11.35
2023-02-18T04:40:48.174Z,11.30
2023-02-18T04:42:52.994Z,11.24
2023-02-18T04:45:01.166Z,11.21
2023-02-18T04:47:06.834Z,11.23
2023-02-18T04:49:11.681Z,11.29
2023-02-18T04:51:16.589Z,11.24
2023-02-18T04:53:21.419Z,11.26
2023-02-18T04:55:26.387Z,11.27
2023-02-18T04:57:31.133Z,11.20
2023-02-18T04:59:36.088Z,11.22
2023-02-18T05:01:43.518Z,11.16
2023-02-18T05:03:48.759Z,11.19
2023-02-18T05:05:55.160Z,11.17
2023-02-18T05:07:59.768Z,11.10
2023-02-18T05:10:04.536Z,11.09
2023-02-18T05:12:10.401Z,11.07
2023-02-18T05:14:15.205Z,11.08
2023-02-18T05:16:20.003Z,11.05
2023-02-18T05:18:27.425Z,11.02
2023-02-18T05:20:32.551Z,11.02
2023-02-18T05:22:37.231Z,10.92
2023-02-18T05:24:42.251Z,10.90
2023-02-18T05:26:47.138Z,10.88
2023-02-18T05:28:52.025Z,10.83
2023-02-18T05:30:56.906Z,10.89
2023-02-18T05:33:01.744Z,10.92
2023-02-18T05:35:10.547Z,10.95
2023-02-18T05:37:15.383Z,10.88
2023-02-18T05:39:20.236Z,10.86
2023-02-18T05:41:25.251Z,10.91
2023-02-18T05:43:30.053Z,10.93
2023-02-18T05:45:32.426Z,11.01
2023-02-18T05:47:37.343Z,10.93
2023-02-18T05:49:43.936Z,10.96
2023-02-18T05:51:51.334Z,10.93
2023-02-18T05:53:56.524Z,11.02
2023-02-18T05:56:01.041Z,10.98
2023-02-18T05:58:05.938Z,10.97
2023-02-18T06:00:12.208Z,10.94
2023-02-18T06:02:17.080Z,10.90
2023-02-18T06:04:21.872Z,10.90
2023-02-18T06:06:27.006Z,10.85
2023-02-18T06:08:34.483Z,10.90
2023-02-18T06:10:39.375Z,10.95
2023-02-18T06:12:44.198Z,10.96
2023-02-18T06:14:49.704Z,11.02
2023-02-18T06:16:56.222Z,11.08
2023-02-18T06:19:01.227Z,11.13
2023-02-18T06:21:06.987Z,11.12
2023-02-18T06:23:11.857Z,11.18
2023-02-18T06:25:19.251Z,11.10
2023-02-18T06:27:24.220Z,11.13
2023-02-18T06:29:30.329Z,11.15
2023-02-18T06:31:35.492Z,11.13
2023-02-18T06:33:40.420Z,11.18
2023-02-18T06:35:45.732Z,11.13
2023-02-18T06:37:50.555Z,11.17
2023-02-18T06:39:55.361Z,11.13
2023-02-18T06:42:02.805Z,11.15
2023-02-18T06:44:08.044Z,11.17
2023-02-18T06:46:13.016Z,11.14
2023-02-18T06:48:17.939Z,11.18
2023-02-18T06:50:22.946Z,11.15
2023-02-18T06:52:27.925Z,11.16
2023-02-18T06:54:32.909Z,11.15
2023-02-18T06:56:37.843Z,11.21
2023-02-18T06:58:45.446Z,11.15
2023-02-18T07:00:50.388Z,11.19
2023-02-18T07:02:55.318Z,11.24
2023-02-18T07:05:00.171Z,11.20
2023-02-18T07:07:04.970Z,11.15
2023-02-18T07:09:10.076Z,11.16
2023-02-18T07:11:14.864Z,11.18
2023-02-18T07:13:19.751Z,11.15
2023-02-18T07:15:28.096Z,11.18
2023-02-18T07:17:33.328Z,11.16
2023-02-18T07:19:38.191Z,11.16
2023-02-18T07:21:43.018Z,11.25
2023-02-18T07:23:47.849Z,11.27
2023-02-18T07:25:52.802Z,11.23
2023-02-18T07:28:00.386Z,11.33
2023-02-18T07:30:05.216Z,11.28
2023-02-18T07:32:14.744Z,11.39
2023-02-18T07:34:19.951Z,11.30
2023-02-18T07:36:24.821Z,11.30
2023-02-18T07:38:31.283Z,11.31
2023-02-18T07:40:36.109Z,11.28
2023-02-18T07:42:40.956Z,11.33
2023-02-18T07:44:46.402Z,11.39
2023-02-18T07:46:51.367Z,11.42
2023-02-18T07:48:59.582Z,11.41
2023-02-18T07:51:04.459Z,11.46
2023-02-18T07:53:10.032Z,11.51
2023-02-18T07:55:14.926Z,11.52
2023-02-18T07:57:19.730Z,11.56
2023-02-18T07:59:24.879Z,11.59
2023-02-18T08:01:29.707Z,11.60
2023-02-18T08:03:36.250Z,11.68
2023-02-18T08:05:43.783Z,11.67
2023-02-18T08:07:48.733Z,11.69
2023-02-18T08:09:53.698Z,11.71
2023-02-18T08:11:58.766Z,11.72
2023-02-18T08:14:03.539Z,11.76
2023-02-18T08:16:09.755Z,11.72
2023-02-18T08:18:19.164Z,11.71
2023-02-18T08:20:24.344Z,11.71
2023-02-18T08:22:31.806Z,11.63
2023-02-18T08:24:36.693Z,11.67
2023-02-18T08:26:58.066Z,11.64
2023-02-18T08:29:04.788Z,11.61
2023-02-18T08:31:10.960Z,11.64
2023-02-18T08:33:15.691Z,11.68
2023-02-18T08:35:20.908Z,11.67
2023-02-18T08:37:31.428Z,11.75
2023-02-18T08:39:56.222Z,11.82
2023-02-18T08:42:01.307Z,11.86
2023-02-18T08:44:06.354Z,12.04
2023-02-18T08:46:15.847Z,12.04
2023-02-18T08:48:21.261Z,12.15
2023-02-18T08:50:26.798Z,12.09
2023-02-18T08:52:34.235Z,12.02
2023-02-18T08:54:39.069Z,12.07
2023-02-18T08:56:44.675Z,12.05
2023-02-18T08:58:49.443Z,12.12
2023-02-18T09:00:57.395Z,12.23
2023-02-18T09:03:02.220Z,12.21
2023-02-18T09:05:07.488Z,12.23
2023-02-18T09:07:12.376Z,12.27
2023-02-18T09:09:20.053Z,12.34
2023-02-18T09:11:24.858Z,12.38
2023-02-18T09:13:30.861Z,12.50
2023-02-18T09:15:35.626Z,12.50
2023-02-18T09:17:40.541Z,12.59
2023-02-18T09:19:45.436Z,12.50
2023-02-18T09:21:51.853Z,12.57
2023-02-18T09:23:56.939Z,12.55
2023-02-18T09:26:08.094Z,12.54
2023-02-18T09:28:13.003Z,12.58
2023-02-18T09:30:18.170Z,12.43
2023-02-18T09:32:34.236Z,12.42
2023-02-18T09:34:40.050Z,12.42
2023-02-18T09:36:44.590Z,12.40
2023-02-18T09:38:49.984Z,12.40
2023-02-18T09:40:58.334Z,12.44
2023-02-18T09:43:06.147Z,12.46
2023-02-18T09:45:16.646Z,12.58
2023-02-18T09:47:28.994Z,12.54
2023-02-18T09:49:36.854Z,12.55
2023-02-18T09:51:41.684Z,12.63
2023-02-18T09:53:47.705Z,12.71
2023-02-18T09:55:57.962Z,12.72
2023-02-18T09:58:08.162Z,12.81
2023-02-18T10:00:17.412Z,12.76
2023-02-18T10:02:22.531Z,12.78
2023-02-18T10:04:32.292Z,12.97
2023-02-18T10:06:38.139Z,12.90
2023-02-18T10:08:47.274Z,12.91
2023-02-18T10:10:52.313Z,12.91
2023-02-18T10:12:58.261Z,12.79
2023-02-18T10:15:05.704Z,12.79
2023-02-18T10:17:11.317Z,12.80
2023-02-18T10:19:24.781Z,12.74
2023-02-18T10:21:33.085Z,12.83
2023-02-18T10:23:42.046Z,12.79
2023-02-18T10:25:49.357Z,12.92
2023-02-18T10:27:56.743Z,12.93
2023-02-18T10:30:21.277Z,12.91
2023-02-18T10:32:27.904Z,12.80
2023-02-18T10:34:44.212Z,12.85
2023-02-18T10:36:52.588Z,12.83
2023-02-18T10:39:32.917Z,12.94
2023-02-18T10:41:45.066Z,13.03
2023-02-18T10:43:58.931Z,13.08
2023-02-18T10:46:15.453Z,13.18
2023-02-18T10:48:35.906Z,13.18
2023-02-18T10:50:42.846Z,13.07
2023-02-18T10:52:52.133Z,13.11
2023-02-18T10:55:04.485Z,13.12
2023-02-18T10:57:18.362Z,13.09
2023-02-18T10:59:25.486Z,13.06
2023-02-18T11:01:34.100Z,13.06
2023-02-18T11:03:45.316Z,13.04
2023-02-18T11:05:52.919Z,13.02
2023-02-18T11:08:02.722Z,12.98
2023-02-18T11:10:18.278Z,12.97
2023-02-18T11:12:25.035Z,12.95
2023-02-18T11:14:41.342Z,12.93
2023-02-18T11:16:55.999Z,12.88
2023-02-18T11:19:04.342Z,12.86
2023-02-18T11:21:22.990Z,12.91
2023-02-18T11:23:27.768Z,12.89
2023-02-18T11:25:37.106Z,13.01
2023-02-18T11:27:46.618Z,13.07
2023-02-18T11:29:54.986Z,12.97
2023-02-18T11:32:04.212Z,12.91
2023-02-18T11:34:13.544Z,12.94
2023-02-18T11:36:24.852Z,13.07
2023-02-18T11:38:33.399Z,13.13
2023-02-18T11:40:39.387Z,13.08
2023-02-18T11:42:44.241Z,13.07
2023-02-18T11:44:55.652Z,13.10
2023-02-18T11:47:06.127Z,13.10
2023-02-18T11:49:24.436Z,13.24
2023-02-18T11:51:36.730Z,13.30
2023-02-18T11:53:41.858Z,13.38
2023-02-18T11:55:56.355Z,13.36
2023-02-18T11:58:03.379Z,13.41
2023-02-18T12:00:19.015Z,13.47
2023-02-18T12:02:36.200Z,13.38
2023-02-18T12:04:46.412Z,13.46
2023-02-18T12:06:57.858Z,13.43
2023-02-18T12:09:09.209Z,13.32
2023-02-18T12:11:25.872Z,13.27
2023-02-18T12:13:35.319Z,13.29
2023-02-18T12:15:53.986Z,13.30
2023-02-18T12:18:16.528Z,13.35
2023-02-18T12:20:38.789Z,13.20
2023-02-18T12:22:46.279Z,13.17
2023-02-18T12:25:07.059Z,13.08
2023-02-18T12:27:20.239Z,13.06
2023-02-18T12:29:40.861Z,13.21
2023-02-18T12:32:07.391Z,13.15
2023-02-18T12:34:29.086Z,13.06
2023-02-18T12:36:51.279Z,13.02
2023-02-18T12:39:11.579Z,13.10
2023-02-18T12:41:42.578Z,13.09
2023-02-18T12:43:58.974Z,13.18
2023-02-18T12:46:24.185Z,13.18
2023-02-18T12:48:54.242Z,13.23
2023-02-18T12:51:12.607Z,13.20
2023-02-18T12:53:39.971Z,13.21
2023-02-18T12:56:00.853Z,13.20
2023-02-18T12:58:16.281Z,13.23
2023-02-18T13:00:49.066Z,13.27
2023-02-18T13:03:25.779Z,13.33
2023-02-18T13:05:36.823Z,13.34
2023-02-18T13:08:01.549Z,13.38
2023-02-18T13:10:24.898Z,13.41
2023-02-18T13:12:38.039Z,13.47
2023-02-18T13:14:49.270Z,13.39
2023-02-18T13:16:57.752Z,13.26
2023-02-18T13:19:10.463Z,13.26
2023-02-18T13:21:16.835Z,13.12
2023-02-18T13:23:26.510Z,13.12
2023-02-18T13:25:32.226Z,13.07
2023-02-18T13:27:43.835Z,13.06
2023-02-18T13:29:55.135Z,13.00
2023-02-18T13:32:11.944Z,13.04
2023-02-18T13:34:24.448Z,12.94
2023-02-18T13:36:42.062Z,12.87
2023-02-18T13:39:05.626Z,12.91
2023-02-18T13:41:11.375Z,12.88
2023-02-18T13:43:32.023Z,12.89
2023-02-18T13:45:37.018Z,12.91
2023-02-18T13:47:44.243Z,12.88
2023-02-18T13:49:49.089Z,12.95
2023-02-18T13:51:56.240Z,12.98
2023-02-18T13:54:09.517Z,12.95
2023-02-18T13:56:24.344Z,12.98
2023-02-18T13:58:34.546Z,13.02
2023-02-18T14:00:43.230Z,13.13
2023-02-18T14:02:59.996Z,13.00
2023-02-18T14:05:24.464Z,12.97
2023-02-18T14:07:41.659Z,12.86
2023-02-18T14:09:49.407Z,12.80
2023-02-18T14:12:00.893Z,12.86
2023-02-18T14:14:47.308Z,12.80
2023-02-18T14:17:16.874Z,12.91
2023-02-18T14:19:31.391Z,12.84
2023-02-18T14:21:42.240Z,12.77
2023-02-18T14:23:58.948Z,12.79
2023-02-18T14:26:13.136Z,12.65
2023-02-18T14:28:44.949Z,12.65
2023-02-18T14:30:50.350Z,12.67
2023-02-18T14:33:00.280Z,12.68
2023-02-18T14:35:29.658Z,12.70
2023-02-18T14:38:04.276Z,12.59
2023-02-18T14:40:24.279Z,12.59
2023-02-18T14:42:42.420Z,12.61
2023-02-18T14:45:12.411Z,12.51
2023-02-18T14:47:38.824Z,12.44
2023-02-18T14:49:47.628Z,12.45
2023-02-18T14:51:55.154Z,12.44
2023-02-18T14:54:05.369Z,12.44
2023-02-18T14:56:13.844Z,12.28
2023-02-18T14:58:36.440Z,12.20
2023-02-18T15:00:44.319Z,12.13
2023-02-18T15:02:52.120Z,12.09
2023-02-18T15:04:57.669Z,12.07
2023-02-18T15:07:05.040Z,11.98
2023-02-18T15:09:17.828Z,11.88
2023-02-18T15:11:24.371Z,11.83
2023-02-18T15:13:35.020Z,11.96
2023-02-18T15:15:39.897Z,11.93
2023-02-18T15:17:50.611Z,11.83
2023-02-18T15:20:01.526Z,11.77
2023-02-18T15:22:06.410Z,11.86
2023-02-18T15:24:18.979Z,11.93
2023-02-18T15:26:24.824Z,11.94
2023-02-18T15:28:34.435Z,11.95
2023-02-18T15:30:41.041Z,11.90
2023-02-18T15:32:49.019Z,11.84
2023-02-18T15:34:56.396Z,11.74
2023-02-18T15:37:03.668Z,11.73
2023-02-18T15:39:08.486Z,11.64
2023-02-18T15:41:17.046Z,11.66
2023-02-18T15:43:25.223Z,11.65
2023-02-18T15:45:38.004Z,11.68
2023-02-18T15:47:47.005Z,11.67
2023-02-18T15:49:55.626Z,11.60
2023-02-18T15:52:03.489Z,11.63
2023-02-18T15:54:08.523Z,11.58
2023-02-18T15:56:18.894Z,11.67
2023-02-18T15:58:26.710Z,11.70
2023-02-18T16:00:38.143Z,11.66
2023-02-18T16:02:55.598Z,11.68
2023-02-18T16:05:05.245Z,11.69
2023-02-18T16:07:24.470Z,11.76
2023-02-18T16:09:32.643Z,11.79
2023-02-18T16:11:40.882Z,11.81
2023-02-18T16:13:49.603Z,11.81
2023-02-18T16:16:00.773Z,11.73
2023-02-18T16:18:07.138Z,11.61
2023-02-18T16:20:28.059Z,11.63
2023-02-18T16:22:38.083Z,11.64
2023-02-18T16:24:44.270Z,11.62
2023-02-18T16:26:49.552Z,11.58
2023-02-18T16:28:55.930Z,11.56
2023-02-18T16:31:03.494Z,11.64
2023-02-18T16:33:08.317Z,11.61
2023-02-18T16:35:14.148Z,11.54
2023-02-18T16:37:31.408Z,11.49
2023-02-18T16:39:37.967Z,11.52
2023-02-18T16:41:44.837Z,11.52
2023-02-18T16:43:50.536Z,11.53
2023-02-18T16:45:57.655Z,11.48
2023-02-18T16:48:05.375Z,11.51
2023-02-18T16:50:19.838Z,11.57
2023-02-18T16:52:24.624Z,11.61
2023-02-18T16:54:30.491Z,11.59
2023-02-18T16:56:37.060Z,11.46
2023-02-18T16:58:41.875Z,11.44
2023-02-18T17:00:48.053Z,11.43
2023-02-18T17:02:56.384Z,11.44
2023-02-18T17:05:06.263Z,11.47
2023-02-18T17:07:14.917Z,11.45
2023-02-18T17:09:21.367Z,11.30
2023-02-18T17:11:28.725Z,11.28
2023-02-18T17:13:34.206Z,11.25
2023-02-18T17:15:39.074Z,11.17
2023-02-18T17:17:44.201Z,11.22
2023-02-18T17:19:49.038Z,11.28
2023-02-18T17:21:56.412Z,11.22
2023-02-18T17:24:02.178Z,11.15
2023-02-18T17:26:13.209Z,11.04
2023-02-18T17:28:19.464Z,11.09
2023-02-18T17:30:24.514Z,11.10
2023-02-18T17:32:29.448Z,11.06
2023-02-18T17:34:36.271Z,11.05
2023-02-18T17:36:45.427Z,11.07
2023-02-18T17:38:52.867Z,11.08
2023-02-18T17:40:59.064Z,11.10
2023-02-18T17:43:03.890Z,11.08
2023-02-18T17:45:19.574Z,11.10
2023-02-18T17:47:24.149Z,11.02
2023-02-18T17:49:29.003Z,10.94
2023-02-18T17:51:34.987Z,10.93
2023-02-18T17:53:39.781Z,10.92
2023-02-18T17:55:48.721Z,10.94
2023-02-18T17:58:11.490Z,10.91
2023-02-18T18:00:19.751Z,10.95
2023-02-18T18:02:30.467Z,10.94
2023-02-18T18:04:35.427Z,10.95
2023-02-18T18:06:40.290Z,10.92
2023-02-18T18:08:45.254Z,10.97
2023-02-18T18:10:55.769Z,10.87
2023-02-18T18:13:01.149Z,10.82
2023-02-18T18:15:19.324Z,10.81
2023-02-18T18:17:24.167Z,10.77
2023-02-18T18:19:30.376Z,10.79
2023-02-18T18:21:37.355Z,10.83
2023-02-18T18:23:42.159Z,10.88
2023-02-18T18:25:48.600Z,10.86
2023-02-18T18:27:56.579Z,10.85
2023-02-18T18:30:01.920Z,10.82
2023-02-18T18:32:06.605Z,10.79
2023-02-18T18:34:12.817Z,10.75
2023-02-18T18:36:19.652Z,10.73
2023-02-18T18:38:26.373Z,10.73
2023-02-18T18:40:32.996Z,10.72
2023-02-18T18:42:37.801Z,10.67
2023-02-18T18:44:45.296Z,10.75
2023-02-18T18:46:50.183Z,10.84
2023-02-18T18:48:57.107Z,10.76
2023-02-18T18:51:02.563Z,10.83
2023-02-18T18:53:07.667Z,10.77
2023-02-18T18:55:23.399Z,10.74
2023-02-18T18:57:28.458Z,10.73
2023-02-18T18:59:33.038Z,10.78
2023-02-18T19:01:40.567Z,10.80
2023-02-18T19:03:45.899Z,10.81
2023-02-18T19:05:51.837Z,10.72
2023-02-18T19:07:59.771Z,10.75
2023-02-18T19:10:04.556Z,10.77
2023-02-18T19:12:09.555Z,10.83
2023-02-18T19:14:15.990Z,10.78
2023-02-18T19:16:22.814Z,10.77
2023-02-18T19:18:32.538Z,10.83
2023-02-18T19:20:39.526Z,10.85
2023-02-18T19:22:45.397Z,10.90
2023-02-18T19:24:50.375Z,10.92
2023-02-18T19:26:55.161Z,10.90
2023-02-18T19:28:59.991Z,10.92
2023-02-18T19:31:05.103Z,10.93
2023-02-18T19:33:10.152Z,10.88
2023-02-18T19:35:17.764Z,10.92
2023-02-18T19:37:23.433Z,10.90
2023-02-18T19:39:28.284Z,10.99
2023-02-18T19:41:33.031Z,10.99
2023-02-18T19:43:38.526Z,11.01
2023-02-18T19:45:45.095Z,11.02
2023-02-18T19:47:50.086Z,11.00
2023-02-18T19:49:56.023Z,10.95
2023-02-18T19:52:04.500Z,11.00
2023-02-18T19:54:09.637Z,10.88
2023-02-18T19:56:14.596Z,10.89
2023-02-18T19:58:19.378Z,10.88
2023-02-18T20:00:25.250Z,10.92
2023-02-18T20:02:31.463Z,10.86
2023-02-18T20:04:36.878Z,10.89
2023-02-18T20:06:41.693Z,10.90
2023-02-18T20:08:49.710Z,10.77
2023-02-18T20:10:59.620Z,10.74
2023-02-18T20:13:05.908Z,10.80
2023-02-18T20:15:11.488Z,10.78
2023-02-18T20:17:16.290Z,10.79
2023-02-18T20:19:21.089Z,10.72
2023-02-18T20:21:26.885Z,10.82
2023-02-18T20:23:31.652Z,10.76
2023-02-18T20:25:41.486Z,10.71
2023-02-18T20:27:59.731Z,10.70
2023-02-18T20:30:06.191Z,10.69
2023-02-18T20:32:11.852Z,10.65
2023-02-18T20:34:16.778Z,10.65
2023-02-18T20:36:21.996Z,10.63
2023-02-18T20:38:26.599Z,10.59
2023-02-18T20:40:31.479Z,10.62
2023-02-18T20:42:38.971Z,10.57
2023-02-18T20:44:43.732Z,10.57
2023-02-18T20:46:48.986Z,10.57
2023-02-18T20:48:53.826Z,10.45
2023-02-18T20:51:01.626Z,10.43
2023-02-18T20:53:06.402Z,10.45
2023-02-18T20:55:11.455Z,10.47
2023-02-18T20:57:16.195Z,10.42
2023-02-18T20:59:24.261Z,10.47
2023-02-18T21:01:29.159Z,10.41
2023-02-18T21:03:34.623Z,10.48
2023-02-18T21:05:39.638Z,10.53
2023-02-18T21:07:44.638Z,10.44
2023-02-18T21:09:49.580Z,10.43
2023-02-18T21:11:56.012Z,10.47
2023-02-18T21:14:01.601Z,10.41
2023-02-18T21:16:10.526Z,10.35
2023-02-18T21:18:15.816Z,10.34
2023-02-18T21:20:20.398Z,10.35
2023-02-18T21:22:25.233Z,10.33
2023-02-18T21:24:32.071Z,10.37
2023-02-18T21:26:38.939Z,10.33
2023-02-18T21:28:43.945Z,10.24
2023-02-18T21:30:49.208Z,10.28
2023-02-18T21:32:59.709Z,10.20
2023-02-18T21:35:04.691Z,10.24
2023-02-18T21:37:09.526Z,10.17
2023-02-18T21:39:14.638Z,10.19
2023-02-18T21:41:19.433Z,10.21
2023-02-18T21:43:24.338Z,10.19
2023-02-18T21:45:32.753Z,10.20
2023-02-18T21:47:39.524Z,10.27
2023-02-18T21:49:47.488Z,10.21
2023-02-18T21:52:08.654Z,10.18
2023-02-18T21:54:13.617Z,10.20
2023-02-18T21:56:18.608Z,10.22
2023-02-18T21:58:23.450Z,10.19
2023-02-18T22:00:28.278Z,10.15
2023-02-18T22:02:35.687Z,10.16
2023-02-18T22:04:40.852Z,10.14
2023-02-18T22:06:48.663Z,10.19
2023-02-18T22:08:56.078Z,10.20
2023-02-18T22:11:00.874Z,10.15
2023-02-18T22:13:05.761Z,10.13
2023-02-18T22:15:11.721Z,10.16
2023-02-18T22:17:17.420Z,10.18
2023-02-18T22:19:22.384Z,10.15
2023-02-18T22:21:27.490Z,10.09
2023-02-18T22:23:36.490Z,10.15
2023-02-18T22:25:41.242Z,10.19
2023-02-18T22:27:46.734Z,10.12
2023-02-18T22:29:51.494Z,10.02
2023-02-18T22:31:56.342Z,10.02
2023-02-18T22:34:02.973Z,10.02
2023-02-18T22:36:10.072Z,10.07
2023-02-18T22:38:14.843Z,10.12
2023-02-18T22:40:22.351Z,10.14
2023-02-18T22:42:27.289Z,10.10
2023-02-18T22:44:32.230Z,10.22
2023-02-18T22:46:38.828Z,10.24
2023-02-18T22:48:43.834Z,10.27
2023-02-18T22:50:48.635Z,10.26
2023-02-18T22:52:55.917Z,10.27
2023-02-18T22:55:00.743Z,10.36
2023-02-18T22:57:08.112Z,10.36
2023-02-18T22:59:13.931Z,10.42
2023-02-18T23:01:23.743Z,10.34
2023-02-18T23:03:29.349Z,10.34
2023-02-18T23:05:36.967Z,10.39
2023-02-18T23:07:41.742Z,10.46
2023-02-18T23:09:46.580Z,10.37
2023-02-18T23:11:55.695Z,10.45
2023-02-18T23:14:15.610Z,10.43
2023-02-18T23:16:22.648Z,10.37
2023-02-18T23:18:27.536Z,10.37
2023-02-18T23:20:44.882Z,10.39
2023-02-18T23:22:49.641Z,10.45
2023-02-18T23:24:55.671Z,10.45
2023-02-18T23:27:00.449Z,10.48
2023-02-18T23:29:08.257Z,10.53
2023-02-18T23:31:13.666Z,10.51
2023-02-18T23:33:18.892Z,10.42
2023-02-18T23:35:23.718Z,10.46
2023-02-18T23:37:42.749Z,10.49
2023-02-18T23:39:48.444Z,10.31
2023-02-18T23:41:54.046Z,10.26
2023-02-18T23:43:59.567Z,10.20
2023-02-18T23:46:07.283Z,10.23
2023-02-18T23:48:12.097Z,10.21
2023-02-18T23:50:17.991Z,10.11
2023-02-18T23:52:22.809Z,10.08
2023-02-18T23:54:28.250Z,10.08
2023-02-18T23:56:33.162Z,10.12
2023-02-18T23:58:38.618Z,10.12
